Time;durP1;ratioP1;P1;durP2;ratioP2;P2;SDS_P1;SDS_P2;PMS_P1;PMS_P2;Temp;Humidity;BMP_temperature;BMP_pressure;BME280_temperature;BME280_humidity;BME280_pressure;Samples;Min_cycle;Max_cycle;Signal;HPM_P1;HPM_P2
2024/01/25 00:00:20;;;;;;;42.63;6.43;;;;;;;;;;6245284;22;20016;-80
2024/01/25 00:02:47;;;;;;;43.15;5.82;;;;;;;;;;6245783;22;20384;-80
2024/01/25 00:05:14;;;;;;;61.40;6.97;;;;;;;;;;6245114;22;20020;-80
2024/01/25 00:07:50;;;;;;;64.78;6.72;;;;;;;;;;6245755;22;20047;-81
2024/01/25 00:10:18;;;;;;;52.47;7.85;;;;;;;;;;6245133;22;20040;-80
2024/01/25 00:12:45;;;;;;;58.87;7.30;;;;;;;;;;6245876;22;20047;-81
2024/01/25 00:15:12;;;;;;;60.13;8.27;;;;;;;;;;6244902;22;20043;-80
2024/01/25 00:17:39;;;;;;;50.58;8.57;;;;;;;;;;6245302;22;20016;-80
2024/01/25 00:20:09;;;;;;;52.55;6.22;;;;;;;;;;6269099;22;20016;-80
2024/01/25 00:22:36;;;;;;;43.75;6.28;;;;;;;;;;6245640;22;20020;-80
2024/01/25 00:25:03;;;;;;;49.13;5.40;;;;;;;;;;6245418;22;20086;-80
2024/01/25 00:27:30;;;;;;;41.75;5.30;;;;;;;;;;6243788;23;20028;-80
2024/01/25 00:29:57;;;;;;;29.05;4.88;;;;;;;;;;6245657;22;20452;-80
2024/01/25 00:32:24;;;;;;;33.30;4.90;;;;;;;;;;6245009;22;21264;-80
2024/01/25 00:34:50;;;;;;;32.50;4.43;;;;;;;;;;6219128;23;20024;-81
2024/01/25 00:37:18;;;;;;;27.77;3.28;;;;;;;;;;6244868;22;20017;-79
2024/01/25 00:39:45;;;;;;;22.83;3.20;;;;;;;;;;6245582;22;20020;-80
2024/01/25 00:42:14;;;;;;;22.75;3.28;;;;;;;;;;6245020;22;20464;-79
2024/01/25 00:44:41;;;;;;;24.77;3.45;;;;;;;;;;6269148;22;20020;-80
2024/01/25 00:47:09;;;;;;;18.27;3.10;;;;;;;;;;6245012;22;20012;-79
2024/01/25 00:49:36;;;;;;;19.45;2.20;;;;;;;;;;6269356;22;20024;-80
2024/01/25 00:52:04;;;;;;;18.13;2.50;;;;;;;;;;6245491;22;20397;-80
2024/01/25 00:54:31;;;;;;;18.08;2.55;;;;;;;;;;6245248;22;20032;-81
2024/01/25 00:56:58;;;;;;;16.08;2.35;;;;;;;;;;6245402;22;20023;-80
2024/01/25 00:59:25;;;;;;;18.20;2.40;;;;;;;;;;6244381;22;20020;-81
2024/01/25 01:01:54;;;;;;;12.73;2.30;;;;;;;;;;6243646;23;20020;-82
2024/01/25 01:04:21;;;;;;;;;;;;;;;;;;6245261;22;20298;-80
2024/01/25 01:06:48;;;;;;;20.27;2.78;;;;;;;;;;6245605;22;19920;-79
2024/01/25 01:09:15;;;;;;;19.05;2.70;;;;;;;;;;6244830;22;20012;-79
2024/01/25 01:11:42;;;;;;;15.30;2.65;;;;;;;;;;6245535;22;20016;-79
2024/01/25 01:14:09;;;;;;;21.58;2.95;;;;;;;;;;6244846;22;20091;-79
2024/01/25 01:16:36;;;;;;;18.92;2.80;;;;;;;;;;6245442;22;20087;-80
2024/01/25 01:19:05;;;;;;;21.90;3.10;;;;;;;;;;6245420;22;20062;-80
2024/01/25 01:21:36;;;;;;;23.80;3.00;;;;;;;;;;6268723;22;20016;-80
2024/01/25 01:24:02;;;;;;;18.08;2.90;;;;;;;;;;6245355;22;20012;-80
2024/01/25 01:26:29;;;;;;;19.40;2.45;;;;;;;;;;6244970;22;20024;-80
2024/01/25 01:28:57;;;;;;;26.60;3.17;;;;;;;;;;6245246;22;20012;-80
2024/01/25 01:31:23;;;;;;;26.60;2.85;;;;;;;;;;6246535;22;20425;-80
2024/01/25 01:33:50;;;;;;;21.30;2.20;;;;;;;;;;6247151;22;20024;-80
2024/01/25 01:36:18;;;;;;;25.60;2.70;;;;;;;;;;6246608;22;20016;-80
2024/01/25 01:38:45;;;;;;;21.88;3.35;;;;;;;;;;6247138;22;20100;-79
2024/01/25 01:41:12;;;;;;;17.52;2.35;;;;;;;;;;6246403;22;20020;-81
2024/01/25 01:43:39;;;;;;;23.70;3.10;;;;;;;;;;6245337;23;20070;-80
2024/01/25 01:46:30;;;;;;;11.52;2.08;;;;;;;;;;6246502;22;20451;-80
2024/01/25 01:48:57;;;;;;;20.55;2.88;;;;;;;;;;6247004;22;20020;-80
2024/01/25 01:51:24;;;;;;;17.77;2.55;;;;;;;;;;6246334;22;20047;-80
2024/01/25 01:53:52;;;;;;;22.42;2.40;;;;;;;;;;6246960;22;20437;-80
2024/01/25 01:56:19;;;;;;;22.35;2.55;;;;;;;;;;6244918;22;20024;-81
2024/01/25 01:58:48;;;;;;;21.13;2.95;;;;;;;;;;6247047;22;20020;-79
2024/01/25 02:01:15;;;;;;;22.83;3.10;;;;;;;;;;6246325;22;20047;-79
2024/01/25 02:03:42;;;;;;;33.85;3.70;;;;;;;;;;6246552;22;20022;-79
2024/01/25 02:06:09;;;;;;;20.48;3.00;;;;;;;;;;6246419;22;20086;-80
2024/01/25 02:08:36;;;;;;;27.52;3.72;;;;;;;;;;6246828;22;20016;-80
2024/01/25 02:11:03;;;;;;;19.08;2.88;;;;;;;;;;6246780;22;20016;-79
2024/01/25 02:13:29;;;;;;;18.00;2.58;;;;;;;;;;6246556;22;20043;-80
2024/01/25 02:15:56;;;;;;;19.42;3.67;;;;;;;;;;6246794;22;20043;-80
2024/01/25 02:18:23;;;;;;;15.68;2.80;;;;;;;;;;6246014;22;20088;-80
2024/01/25 02:20:50;;;;;;;22.67;2.92;;;;;;;;;;6246855;22;20016;-79
2024/01/25 02:23:17;;;;;;;17.35;2.53;;;;;;;;;;6245950;22;20365;-80
2024/01/25 02:25:44;;;;;;;16.48;2.72;;;;;;;;;;6246475;22;20082;-79
2024/01/25 02:28:11;;;;;;;25.98;3.35;;;;;;;;;;6246108;22;20099;-80
2024/01/25 02:30:38;;;;;;;18.58;2.40;;;;;;;;;;6246743;22;20020;-79
2024/01/25 02:33:05;;;;;;;20.23;2.60;;;;;;;;;;6246163;22;20028;-79
2024/01/25 02:35:32;;;;;;;23.02;3.00;;;;;;;;;;6246287;22;20451;-80
2024/01/25 02:37:59;;;;;;;17.23;2.80;;;;;;;;;;6246693;22;20303;-79
2024/01/25 02:40:26;;;;;;;23.17;3.28;;;;;;;;;;6245603;22;20016;-79
2024/01/25 02:42:53;;;;;;;26.08;3.85;;;;;;;;;;6246431;22;20377;-79
2024/01/25 02:45:19;;;;;;;28.10;3.67;;;;;;;;;;6245698;22;20044;-79
2024/01/25 02:47:46;;;;;;;28.77;4.38;;;;;;;;;;6246369;22;20022;-79
2024/01/25 02:50:13;;;;;;;27.33;3.75;;;;;;;;;;6245940;22;20490;-81
2024/01/25 02:52:40;;;;;;;19.45;3.47;;;;;;;;;;6270262;22;20066;-80
2024/01/25 02:55:07;;;;;;;30.90;4.13;;;;;;;;;;6245837;22;20341;-80
2024/01/25 02:57:34;;;;;;;29.45;4.22;;;;;;;;;;6246366;22;20091;-80
2024/01/25 03:00:01;;;;;;;32.28;4.55;;;;;;;;;;6246390;22;20020;-80
2024/01/25 03:02:28;;;;;;;25.63;4.70;;;;;;;;;;6245597;22;20445;-80
2024/01/25 03:04:55;;;;;;;20.17;4.35;;;;;;;;;;6245986;22;20321;-80
2024/01/25 03:07:22;;;;;;;30.27;5.10;;;;;;;;;;6245584;22;20016;-80
2024/01/25 03:09:48;;;;;;;29.13;4.60;;;;;;;;;;6246216;22;20020;-80
2024/01/25 03:12:16;;;;;;;42.20;5.25;;;;;;;;;;6245642;22;20016;-80
2024/01/25 03:14:43;;;;;;;22.27;4.25;;;;;;;;;;6246310;22;20062;-80
2024/01/25 03:17:09;;;;;;;21.77;3.63;;;;;;;;;;6245508;22;20020;-80
2024/01/25 03:19:36;;;;;;;23.52;3.72;;;;;;;;;;6246158;22;20641;-79
2024/01/25 03:22:03;;;;;;;25.67;4.35;;;;;;;;;;6246183;22;20020;-80
2024/01/25 03:24:30;;;;;;;27.65;3.97;;;;;;;;;;6245594;22;20016;-80
2024/01/25 03:26:56;;;;;;;27.63;4.28;;;;;;;;;;6246181;22;20074;-80
2024/01/25 03:29:23;;;;;;;30.58;4.10;;;;;;;;;;6245495;22;20051;-80
2024/01/25 03:31:50;;;;;;;21.55;3.53;;;;;;;;;;6245920;22;20034;-80
2024/01/25 03:34:17;;;;;;;17.48;2.67;;;;;;;;;;6243831;22;20132;-80
2024/01/25 03:36:44;;;;;;;17.45;3.40;;;;;;;;;;6269671;22;20016;-79
2024/01/25 03:39:10;;;;;;;17.55;2.97;;;;;;;;;;6245300;22;20437;-80
2024/01/25 03:41:37;;;;;;;18.95;3.40;;;;;;;;;;6245929;22;20020;-79
2024/01/25 03:44:04;;;;;;;19.88;3.33;;;;;;;;;;6245435;22;20044;-80
2024/01/25 03:46:30;;;;;;;19.17;3.50;;;;;;;;;;6245524;22;20020;-80
2024/01/25 03:48:57;;;;;;;17.58;3.58;;;;;;;;;;6245800;22;20020;-80
2024/01/25 03:51:24;;;;;;;22.75;3.83;;;;;;;;;;6245412;22;20040;-80
2024/01/25 03:53:52;;;;;;;17.25;3.70;;;;;;;;;;6245378;22;20016;-80
2024/01/25 03:56:19;;;;;;;19.20;3.85;;;;;;;;;;6245390;22;20070;-79
2024/01/25 03:58:46;;;;;;;24.50;4.47;;;;;;;;;;6244312;23;20020;-79
2024/01/25 04:01:13;;;;;;;19.85;4.07;;;;;;;;;;6245139;22;20507;-79
2024/01/25 04:03:41;;;;;;;22.75;4.38;;;;;;;;;;6269440;22;20086;-80
2024/01/25 04:06:08;;;;;;;19.88;4.50;;;;;;;;;;6245168;22;20433;-80
2024/01/25 04:08:35;;;;;;;20.00;4.75;;;;;;;;;;6245522;22;20016;-80
2024/01/25 04:11:02;;;;;;;18.25;4.38;;;;;;;;;;6269524;22;20024;-80
2024/01/25 04:13:28;;;;;;;21.45;4.80;;;;;;;;;;6245476;22;20030;-81
2024/01/25 04:15:55;;;;;;;24.25;4.90;;;;;;;;;;6245530;22;20206;-81
2024/01/25 04:18:22;;;;;;;18.48;4.22;;;;;;;;;;6244959;22;20016;-80
2024/01/25 04:20:50;;;;;;;20.73;5.10;;;;;;;;;;6245598;22;20050;-79
2024/01/25 04:23:17;;;;;;;18.13;5.07;;;;;;;;;;6244880;22;20016;-80
2024/01/25 04:25:44;;;;;;;17.35;5.05;;;;;;;;;;6245178;22;20548;-80
2024/01/25 04:28:11;;;;;;;19.70;4.95;;;;;;;;;;6245067;22;20017;-78
2024/01/25 04:30:38;;;;;;;22.80;4.63;;;;;;;;;;6245464;22;20016;-81
2024/01/25 04:33:05;;;;;;;21.02;4.85;;;;;;;;;;6245099;22;20016;-79
2024/01/25 04:35:32;;;;;;;17.13;4.80;;;;;;;;;;6245423;22;20016;-80
2024/01/25 04:37:59;;;;;;;16.98;4.50;;;;;;;;;;6245505;22;20101;-80
2024/01/25 04:40:26;;;;;;;11.55;4.40;;;;;;;;;;6244883;22;20036;-78
2024/01/25 04:42:53;;;;;;;9.93;4.45;;;;;;;;;;6245583;22;20012;-80
2024/01/25 04:45:20;;;;;;;12.10;4.20;;;;;;;;;;6268750;22;20028;-79
2024/01/25 04:47:46;;;;;;;21.48;5.25;;;;;;;;;;6245436;22;20012;-79
2024/01/25 04:50:13;;;;;;;11.27;4.97;;;;;;;;;;6245029;22;20012;-79
2024/01/25 04:52:40;;;;;;;14.95;4.75;;;;;;;;;;6245479;22;20020;-79
2024/01/25 04:55:07;;;;;;;11.57;4.75;;;;;;;;;;6244950;22;20016;-80
2024/01/25 04:57:34;;;;;;;14.63;4.72;;;;;;;;;;6245344;22;20020;-81
2024/01/25 05:00:01;;;;;;;16.30;3.97;;;;;;;;;;6245419;22;20066;-79
2024/01/25 05:02:28;;;;;;;14.10;4.25;;;;;;;;;;6244763;22;20099;-80
2024/01/25 05:04:55;;;;;;;16.00;4.00;;;;;;;;;;6246760;22;20012;-79
2024/01/25 05:07:22;;;;;;;13.30;4.00;;;;;;;;;;6246960;22;20071;-79
2024/01/25 05:09:56;;;;;;;12.13;4.20;;;;;;;;;;6247396;22;20025;-80
2024/01/25 05:12:23;;;;;;;13.15;4.05;;;;;;;;;;6246955;22;20106;-80
2024/01/25 05:14:49;;;;;;;13.02;4.18;;;;;;;;;;6247903;22;20016;-80
2024/01/25 05:17:16;;;;;;;12.30;4.07;;;;;;;;;;6246754;22;20729;-80
2024/01/25 05:19:43;;;;;;;13.45;3.80;;;;;;;;;;6247539;22;20012;-80
2024/01/25 05:22:10;;;;;;;11.90;3.45;;;;;;;;;;6247071;22;20078;-79
2024/01/25 05:24:37;;;;;;;9.52;3.53;;;;;;;;;;6247468;22;20008;-80
2024/01/25 05:27:04;;;;;;;12.75;3.42;;;;;;;;;;6247940;22;20090;-81
2024/01/25 05:29:31;;;;;;;7.30;3.13;;;;;;;;;;6248789;22;20027;-80
2024/01/25 05:31:57;;;;;;;9.00;3.50;;;;;;;;;;6257822;23;20066;-80
2024/01/25 05:34:24;;;;;;;7.68;2.55;;;;;;;;;;6282080;22;20027;-82
2024/01/25 05:36:51;;;;;;;4.95;2.40;;;;;;;;;;6248773;22;20020;-79
2024/01/25 05:39:18;;;;;;;6.57;2.17;;;;;;;;;;6246491;22;20438;-80
2024/01/25 05:41:45;;;;;;;8.48;2.28;;;;;;;;;;6247052;22;20372;-80
2024/01/25 05:44:12;;;;;;;7.22;1.73;;;;;;;;;;6246552;22;20012;-80
2024/01/25 05:46:40;;;;;;;6.38;1.90;;;;;;;;;;6247146;22;20020;-80
2024/01/25 05:49:06;;;;;;;9.45;2.00;;;;;;;;;;6270140;22;20032;-81
2024/01/25 05:51:33;;;;;;;12.00;2.28;;;;;;;;;;6246894;22;20119;-80
2024/01/25 05:54:00;;;;;;;6.38;1.98;;;;;;;;;;6246914;22;20585;-79
2024/01/25 05:56:27;;;;;;;8.35;1.77;;;;;;;;;;6244376;22;20020;-79
2024/01/25 05:58:54;;;;;;;9.27;1.63;;;;;;;;;;6246900;22;20016;-80
2024/01/25 06:01:20;;;;;;;6.72;1.70;;;;;;;;;;6245858;22;20027;-81
2024/01/25 06:03:47;;;;;;;8.57;1.95;;;;;;;;;;6245132;23;20036;-80
2024/01/25 06:06:14;;;;;;;6.47;1.55;;;;;;;;;;6245783;22;20322;-80
2024/01/25 06:08:41;;;;;;;8.00;1.55;;;;;;;;;;6246965;22;20031;-79
2024/01/25 06:11:15;;;;;;;9.68;3.08;;;;;;;;;;6245820;22;20016;-79
2024/01/25 06:13:42;;;;;;;10.45;2.15;;;;;;;;;;6246746;22;20468;-80
2024/01/25 06:16:09;;;;;;;10.38;1.83;;;;;;;;;;6245677;22;20016;-80
2024/01/25 06:18:36;;;;;;;9.70;1.85;;;;;;;;;;6246406;22;20087;-79
2024/01/25 06:21:03;;;;;;;9.00;1.65;;;;;;;;;;6246364;22;20016;-78
2024/01/25 06:23:30;;;;;;;11.05;2.00;;;;;;;;;;6245742;22;20032;-81
2024/01/25 06:25:57;;;;;;;9.93;1.98;;;;;;;;;;6244058;22;20020;-79
2024/01/25 06:28:24;;;;;;;9.57;2.30;;;;;;;;;;6246478;23;20016;-80
2024/01/25 06:30:51;;;;;;;10.73;2.42;;;;;;;;;;6244100;22;20016;-79
2024/01/25 06:33:17;;;;;;;7.72;2.10;;;;;;;;;;6243424;22;20460;-79
2024/01/25 06:35:44;;;;;;;15.75;2.88;;;;;;;;;;6244363;22;20024;-78
2024/01/25 06:38:12;;;;;;;10.82;2.75;;;;;;;;;;6244205;22;20016;-80
2024/01/25 06:40:38;;;;;;;14.80;3.25;;;;;;;;;;6244375;22;20507;-79
2024/01/25 06:43:05;;;;;;;12.50;3.67;;;;;;;;;;6244046;22;20016;-79
2024/01/25 06:45:32;;;;;;;13.38;3.33;;;;;;;;;;6246431;22;20444;-79
2024/01/25 06:47:59;;;;;;;12.30;3.45;;;;;;;;;;6246290;22;20016;-79
2024/01/25 06:50:25;;;;;;;14.18;3.50;;;;;;;;;;6245614;22;20016;-78
2024/01/25 06:52:53;;;;;;;20.50;3.88;;;;;;;;;;6246551;22;20016;-79
2024/01/25 06:55:20;;;;;;;14.45;3.72;;;;;;;;;;6245899;22;20020;-78
2024/01/25 06:57:47;;;;;;;12.95;4.28;;;;;;;;;;6246274;22;20035;-78
2024/01/25 07:00:15;;;;;;;15.18;3.70;;;;;;;;;;6245749;22;20012;-79
2024/01/25 07:02:43;;;;;;;;;;;;;;;;;;6246848;22;20024;-78
2024/01/25 07:05:10;;;;;;;20.52;4.57;;;;;;;;;;6245450;22;20278;-80
2024/01/25 07:07:38;;;;;;;15.63;4.35;;;;;;;;;;6246196;22;20078;-79
2024/01/25 07:10:07;;;;;;;16.52;4.40;;;;;;;;;;6244296;22;20340;-77
2024/01/25 07:12:34;;;;;;;18.67;4.72;;;;;;;;;;6246207;22;20318;-79
2024/01/25 07:15:01;;;;;;;15.15;4.25;;;;;;;;;;6245774;22;20449;-79
2024/01/25 07:17:28;;;;;;;19.25;4.28;;;;;;;;;;6245463;22;20368;-79
2024/01/25 07:19:55;;;;;;;24.15;5.00;;;;;;;;;;6245971;22;20342;-79
2024/01/25 07:22:22;;;;;;;16.48;4.40;;;;;;;;;;6245458;22;20016;-78
2024/01/25 07:24:49;;;;;;;16.90;4.88;;;;;;;;;;6244476;23;20020;-79
2024/01/25 07:27:16;;;;;;;13.93;3.85;;;;;;;;;;6244859;22;20036;-79
2024/01/25 07:29:45;;;;;;;18.85;4.55;;;;;;;;;;6245994;22;20016;-79
2024/01/25 07:32:12;;;;;;;20.42;4.50;;;;;;;;;;6245449;22;20073;-79
2024/01/25 07:34:39;;;;;;;32.30;5.60;;;;;;;;;;6269930;22;20016;-79
2024/01/25 07:37:06;;;;;;;28.30;4.75;;;;;;;;;;6245201;22;20345;-78
2024/01/25 07:39:33;;;;;;;22.67;5.20;;;;;;;;;;6245894;22;20082;-78
2024/01/25 07:42:00;;;;;;;18.30;5.00;;;;;;;;;;6245563;22;20016;-79
2024/01/25 07:44:27;;;;;;;25.63;5.47;;;;;;;;;;6244992;22;20026;-78
2024/01/25 07:46:53;;;;;;;25.20;5.05;;;;;;;;;;6269522;22;20019;-79
2024/01/25 07:49:20;;;;;;;22.17;5.25;;;;;;;;;;6245455;22;20019;-79
2024/01/25 07:51:47;;;;;;;23.42;4.57;;;;;;;;;;6245752;22;20023;-77
2024/01/25 07:54:14;;;;;;;23.15;5.55;;;;;;;;;;6245357;22;20018;-78
2024/01/25 07:56:41;;;;;;;21.50;5.68;;;;;;;;;;6245859;22;20441;-78
2024/01/25 07:59:08;;;;;;;22.45;5.20;;;;;;;;;;6245041;22;20019;-80
2024/01/25 08:01:35;;;;;;;26.92;5.55;;;;;;;;;;6245632;22;20020;-79
2024/01/25 08:04:03;;;;;;;31.17;5.78;;;;;;;;;;6245732;22;20016;-79
2024/01/25 08:06:30;;;;;;;27.98;6.00;;;;;;;;;;6245389;22;20020;-79
2024/01/25 08:08:57;;;;;;;20.55;5.40;;;;;;;;;;6244122;22;20015;-78
2024/01/25 08:11:25;;;;;;;32.10;5.97;;;;;;;;;;6243156;22;20513;-78
2024/01/25 08:13:51;;;;;;;34.95;7.13;;;;;;;;;;6243939;22;20073;-79
2024/01/25 08:16:21;;;;;;;43.08;7.07;;;;;;;;;;6245051;22;20399;-78
2024/01/25 08:18:48;;;;;;;43.38;7.30;;;;;;;;;;6244029;23;20044;-79
2024/01/25 08:21:16;;;;;;;31.37;7.07;;;;;;;;;;6245008;22;20372;-79
2024/01/25 08:23:43;;;;;;;37.97;6.72;;;;;;;;;;6243848;23;20074;-78
2024/01/25 08:26:12;;;;;;;37.38;6.45;;;;;;;;;;6244844;22;20095;-78
2024/01/25 08:28:40;;;;;;;31.08;5.45;;;;;;;;;;6245655;22;20437;-79
2024/01/25 08:31:07;;;;;;;27.83;6.40;;;;;;;;;;6246092;22;20012;-78
2024/01/25 08:33:34;;;;;;;30.05;6.07;;;;;;;;;;6245693;22;20040;-79
2024/01/25 08:36:02;;;;;;;33.72;6.15;;;;;;;;;;6246134;22;20403;-79
2024/01/25 08:38:29;;;;;;;28.63;5.47;;;;;;;;;;6245477;22;20078;-79
2024/01/25 08:40:55;;;;;;;27.20;4.90;;;;;;;;;;6247782;22;20012;-79
2024/01/25 08:43:22;;;;;;;37.53;5.70;;;;;;;;;;6247318;22;20062;-78
2024/01/25 08:45:49;;;;;;;23.77;4.80;;;;;;;;;;6247496;22;20020;-78
2024/01/25 08:48:16;;;;;;;35.28;5.85;;;;;;;;;;6247085;22;20023;-81
2024/01/25 08:50:44;;;;;;;35.65;5.57;;;;;;;;;;6247807;22;20020;-78
2024/01/25 08:53:11;;;;;;;24.77;5.57;;;;;;;;;;6247089;22;20012;-78
2024/01/25 08:55:38;;;;;;;34.97;5.85;;;;;;;;;;6247447;22;20027;-79
2024/01/25 08:58:05;;;;;;;26.95;6.20;;;;;;;;;;6247277;22;20380;-80
2024/01/25 09:00:32;;;;;;;26.80;5.95;;;;;;;;;;6245785;23;20046;-78
2024/01/25 09:02:59;;;;;;;32.03;6.45;;;;;;;;;;6247524;22;20016;-79
2024/01/25 09:05:28;;;;;;;28.85;6.13;;;;;;;;;;6247203;22;20028;-80
2024/01/25 09:07:55;;;;;;;23.35;6.15;;;;;;;;;;6247648;22;20458;-79
2024/01/25 09:10:22;;;;;;;25.45;6.18;;;;;;;;;;6246939;22;20087;-77
2024/01/25 09:12:49;;;;;;;25.92;5.55;;;;;;;;;;6247495;22;20024;-79
2024/01/25 09:15:17;;;;;;;34.40;6.50;;;;;;;;;;6246743;22;20095;-79
2024/01/25 09:17:44;;;;;;;27.55;6.55;;;;;;;;;;6251117;22;20024;-79
2024/01/25 09:20:12;;;;;;;29.45;6.15;;;;;;;;;;6247102;22;20016;-79
2024/01/25 09:22:39;;;;;;;29.48;5.70;;;;;;;;;;6247285;22;20091;-80
2024/01/25 09:25:07;;;;;;;28.73;6.13;;;;;;;;;;6246324;22;20018;-78
2024/01/25 09:27:36;;;;;;;17.80;5.10;;;;;;;;;;6247184;22;20015;-80
2024/01/25 09:30:08;;;;;;;23.03;5.83;;;;;;;;;;6247104;22;20083;-79
2024/01/25 09:32:34;;;;;;;21.23;5.38;;;;;;;;;;6246788;22;20054;-80
2024/01/25 09:35:01;;;;;;;25.10;6.18;;;;;;;;;;6246992;22;20078;-80
2024/01/25 09:37:29;;;;;;;13.75;4.25;;;;;;;;;;6270185;22;20479;-78
2024/01/25 09:39:58;;;;;;;13.05;4.28;;;;;;;;;;6247164;22;20015;-79
2024/01/25 09:42:26;;;;;;;;;;;;;;;;;;6246759;22;20024;-79
2024/01/25 09:44:54;;;;;;;21.08;5.15;;;;;;;;;;6247019;22;19920;-78
2024/01/25 09:47:22;;;;;;;31.77;5.95;;;;;;;;;;6246415;22;20012;-79
2024/01/25 09:49:48;;;;;;;19.70;5.97;;;;;;;;;;6246683;22;20020;-80
2024/01/25 09:52:16;;;;;;;18.58;4.85;;;;;;;;;;6246344;22;20103;-79
2024/01/25 09:54:43;;;;;;;18.45;5.45;;;;;;;;;;6247042;22;20024;-78
2024/01/25 09:57:22;;;;;;;19.92;6.72;;;;;;;;;;6246392;22;20307;-78
2024/01/25 09:59:50;;;;;;;;;;;;;;;;;;6247382;22;20020;-79
2024/01/25 10:02:17;;;;;;;25.23;5.63;;;;;;;;;;6246241;22;19916;-79
2024/01/25 10:04:49;;;;;;;23.13;7.05;;;;;;;;;;6246844;22;20604;-78
2024/01/25 10:07:16;;;;;;;18.05;7.18;;;;;;;;;;6246175;22;20449;-79
2024/01/25 10:09:43;;;;;;;23.10;5.95;;;;;;;;;;6246777;22;20016;-79
2024/01/25 10:12:10;;;;;;;25.00;6.80;;;;;;;;;;6246295;22;20017;-79
2024/01/25 10:14:45;;;;;;;23.52;6.38;;;;;;;;;;6246856;22;20020;-79
2024/01/25 10:17:11;;;;;;;21.25;6.22;;;;;;;;;;6245962;22;20048;-78
2024/01/25 10:19:43;;;;;;;17.67;6.43;;;;;;;;;;6246784;22;20102;-79
2024/01/25 10:22:12;;;;;;;19.83;5.35;;;;;;;;;;6246113;22;20012;-78
2024/01/25 10:24:41;;;;;;;25.05;6.13;;;;;;;;;;6246795;22;20043;-80
2024/01/25 10:27:08;;;;;;;22.70;5.35;;;;;;;;;;6245889;22;20020;-78
2024/01/25 10:29:35;;;;;;;18.20;4.70;;;;;;;;;;6246664;22;20031;-79
2024/01/25 10:32:07;;;;;;;30.75;5.97;;;;;;;;;;6246478;22;20375;-78
2024/01/25 10:34:38;;;;;;;25.63;5.70;;;;;;;;;;6246141;22;20063;-79
2024/01/25 10:37:06;;;;;;;24.02;4.72;;;;;;;;;;6246020;22;20016;-78
2024/01/25 10:39:34;;;;;;;19.95;5.03;;;;;;;;;;6270315;22;20036;-79
2024/01/25 10:42:01;;;;;;;17.50;5.07;;;;;;;;;;6246521;22;20020;-78
2024/01/25 10:44:28;;;;;;;15.48;4.72;;;;;;;;;;6245523;22;20047;-80
2024/01/25 10:46:55;;;;;;;16.83;4.10;;;;;;;;;;6246532;22;20415;-79
2024/01/25 10:49:23;;;;;;;22.63;4.75;;;;;;;;;;6245899;22;20019;-79
2024/01/25 10:51:50;;;;;;;23.40;5.20;;;;;;;;;;6246429;22;20019;-79
2024/01/25 10:54:17;;;;;;;20.70;5.20;;;;;;;;;;6245901;22;20012;-79
2024/01/25 10:56:47;;;;;;;13.45;4.32;;;;;;;;;;6246391;22;20024;-79
2024/01/25 10:59:15;;;;;;;20.83;5.40;;;;;;;;;;6245866;22;20016;-79
2024/01/25 11:01:45;;;;;;;23.10;5.57;;;;;;;;;;6246170;22;20019;-80
2024/01/25 11:04:15;;;;;;;22.60;5.80;;;;;;;;;;6245884;22;20074;-79
2024/01/25 11:06:45;;;;;;;21.50;6.07;;;;;;;;;;6246117;22;20361;-79
2024/01/25 11:09:18;;;;;;;18.42;5.75;;;;;;;;;;6245523;22;20016;-78
2024/01/25 11:11:49;;;;;;;26.55;5.70;;;;;;;;;;6246156;22;20016;-80
2024/01/25 11:14:19;;;;;;;17.48;5.05;;;;;;;;;;6245695;22;20047;-78
2024/01/25 11:16:46;;;;;;;21.35;4.97;;;;;;;;;;6246220;22;20087;-79
2024/01/25 11:19:17;;;;;;;22.50;4.72;;;;;;;;;;6243822;22;20079;-79
2024/01/25 11:21:46;;;;;;;20.55;4.15;;;;;;;;;;6246007;22;20012;-79
2024/01/25 11:24:14;;;;;;;16.38;4.45;;;;;;;;;;6245462;22;20012;-79
2024/01/25 11:26:44;;;;;;;20.45;5.22;;;;;;;;;;6244491;23;20024;-79
2024/01/25 11:29:20;;;;;;;17.83;5.40;;;;;;;;;;6245607;22;20066;-79
2024/01/25 11:31:48;;;;;;;18.60;5.93;;;;;;;;;;6245845;22;20373;-79
2024/01/25 11:34:16;;;;;;;16.30;5.55;;;;;;;;;;6245376;22;20016;-79
2024/01/25 11:36:44;;;;;;;17.70;5.82;;;;;;;;;;6244524;23;20042;-78
2024/01/25 11:39:12;;;;;;;20.98;6.15;;;;;;;;;;6245542;22;20040;-79
2024/01/25 11:41:39;;;;;;;19.57;5.97;;;;;;;;;;6245660;22;20023;-79
2024/01/25 11:44:06;;;;;;;19.92;6.65;;;;;;;;;;6245372;22;20012;-79
2024/01/25 11:46:32;;;;;;;18.70;7.18;;;;;;;;;;6245382;22;20023;-79
2024/01/25 11:49:03;;;;;;;18.40;6.30;;;;;;;;;;6245448;22;20087;-79
2024/01/25 11:51:30;;;;;;;23.10;5.93;;;;;;;;;;6245676;22;20024;-79
2024/01/25 11:53:58;;;;;;;21.10;6.97;;;;;;;;;;6245742;22;20058;-79
2024/01/25 11:56:28;;;;;;;26.85;7.32;;;;;;;;;;6245151;22;20020;-81
2024/01/25 11:58:58;;;;;;;28.85;8.98;;;;;;;;;;6245987;22;20013;-79
2024/01/25 12:01:25;;;;;;;27.10;7.95;;;;;;;;;;6245315;22;20016;-78
2024/01/25 12:03:53;;;;;;;29.27;8.85;;;;;;;;;;6245596;22;20020;-79
2024/01/25 12:06:20;;;;;;;29.40;8.25;;;;;;;;;;6245013;22;20336;-78
2024/01/25 12:08:48;;;;;;;27.23;8.85;;;;;;;;;;6245661;22;20020;-79
2024/01/25 12:11:15;;;;;;;41.00;9.52;;;;;;;;;;6245079;22;20096;-78
2024/01/25 12:13:43;;;;;;;25.58;8.45;;;;;;;;;;6245483;22;20026;-78
2024/01/25 12:16:11;;;;;;;35.40;9.50;;;;;;;;;;6245094;22;20050;-77
2024/01/25 12:18:41;;;;;;;32.22;10.02;;;;;;;;;;6244141;23;20046;-80
2024/01/25 12:21:09;;;;;;;38.67;11.20;;;;;;;;;;6245165;22;20020;-78
2024/01/25 12:23:40;;;;;;;36.75;11.85;;;;;;;;;;6245484;22;20464;-78
2024/01/25 12:26:08;;;;;;;40.97;11.93;;;;;;;;;;6245084;22;20035;-79
2024/01/25 12:28:35;;;;;;;35.60;11.35;;;;;;;;;;6245603;22;20040;-77
2024/01/25 12:31:05;;;;;;;37.72;12.43;;;;;;;;;;6245526;22;20016;-78
2024/01/25 12:33:33;;;;;;;34.00;11.45;;;;;;;;;;6245407;22;20103;-78
2024/01/25 12:36:03;;;;;;;41.58;11.55;;;;;;;;;;6245784;22;20039;-78
2024/01/25 12:38:33;;;;;;;37.75;12.13;;;;;;;;;;6245272;22;20425;-78
2024/01/25 12:41:02;;;;;;;36.80;12.63;;;;;;;;;;6245758;22;20012;-78
2024/01/25 12:43:30;;;;;;;40.90;15.77;;;;;;;;;;6245315;22;20515;-78
2024/01/25 12:45:58;;;;;;;;;;;;;;;;;;6246176;22;20020;-79
2024/01/25 12:48:42;;;;;;;37.13;13.25;;;;;;;;;;6245373;22;19930;-78
2024/01/25 12:51:13;;;;;;;48.58;15.10;;;;;;;;;;6245068;22;20024;-78
2024/01/25 12:53:40;;;;;;;57.13;17.27;;;;;;;;;;6245892;22;20535;-78
2024/01/25 12:56:07;;;;;;;53.15;17.77;;;;;;;;;;6245037;22;20761;-79
2024/01/25 12:58:33;;;;;;;46.10;16.80;;;;;;;;;;6244030;23;20023;-78
2024/01/25 13:01:02;;;;;;;45.65;17.00;;;;;;;;;;6243975;23;20389;-79
2024/01/25 13:03:29;;;;;;;56.53;15.17;;;;;;;;;;6245381;22;20040;-78
2024/01/25 13:05:55;;;;;;;47.10;14.05;;;;;;;;;;6245267;22;20070;-79
2024/01/25 13:08:22;;;;;;;52.28;15.88;;;;;;;;;;6244822;22;20016;-80
2024/01/25 13:10:49;;;;;;;53.55;15.63;;;;;;;;;;6245418;22;20020;-79
2024/01/25 13:13:16;;;;;;;43.35;14.23;;;;;;;;;;6244846;22;20008;-80
2024/01/25 13:15:43;;;;;;;49.25;15.48;;;;;;;;;;6245594;22;20020;-80
2024/01/25 13:18:09;;;;;;;47.08;15.07;;;;;;;;;;6244902;22;20509;-80
2024/01/25 13:20:36;;;;;;;52.35;14.70;;;;;;;;;;6245362;22;20031;-78
2024/01/25 13:23:04;;;;;;;52.00;14.63;;;;;;;;;;6245203;22;20027;-79
2024/01/25 13:25:31;;;;;;;44.42;15.23;;;;;;;;;;6245364;22;20062;-79
2024/01/25 13:27:57;;;;;;;43.95;14.35;;;;;;;;;;6247142;22;20022;-79
2024/01/25 13:30:24;;;;;;;44.50;15.07;;;;;;;;;;6246501;22;20024;-79
2024/01/25 13:32:51;;;;;;;37.88;13.40;;;;;;;;;;6247211;22;20413;-79
2024/01/25 13:35:18;;;;;;;39.63;15.55;;;;;;;;;;6246499;22;20016;-78
2024/01/25 13:37:44;;;;;;;52.28;13.73;;;;;;;;;;6247047;22;20012;-79
2024/01/25 13:40:11;;;;;;;49.72;15.02;;;;;;;;;;6246583;22;20062;-78
2024/01/25 13:42:38;;;;;;;58.38;16.20;;;;;;;;;;6247241;22;20016;-78
2024/01/25 13:45:07;;;;;;;49.92;14.50;;;;;;;;;;6246505;22;20020;-77
2024/01/25 13:47:33;;;;;;;42.47;12.80;;;;;;;;;;6246958;22;20071;-78
2024/01/25 13:50:00;;;;;;;56.28;13.45;;;;;;;;;;6247165;22;20067;-78
2024/01/25 13:52:27;;;;;;;51.10;14.02;;;;;;;;;;6246476;22;20024;-78
2024/01/25 13:54:54;;;;;;;59.33;14.02;;;;;;;;;;6247077;22;20131;-78
2024/01/25 13:57:23;;;;;;;46.33;12.90;;;;;;;;;;6246182;22;20095;-78
2024/01/25 13:59:51;;;;;;;47.17;11.90;;;;;;;;;;6247000;22;20019;-79
2024/01/25 14:02:18;;;;;;;48.30;11.82;;;;;;;;;;6246387;22;20018;-78
2024/01/25 14:04:45;;;;;;;41.28;11.77;;;;;;;;;;6246868;22;20330;-79
2024/01/25 14:07:16;;;;;;;39.75;10.45;;;;;;;;;;6269767;22;20016;-78
2024/01/25 14:09:43;;;;;;;33.97;9.85;;;;;;;;;;6246718;22;20332;-78
2024/01/25 14:12:11;;;;;;;36.03;9.97;;;;;;;;;;6246433;22;20022;-79
2024/01/25 14:14:39;;;;;;;39.47;10.95;;;;;;;;;;6246889;22;20302;-79
2024/01/25 14:17:06;;;;;;;41.05;11.02;;;;;;;;;;6246187;22;20087;-78
2024/01/25 14:19:32;;;;;;;53.08;10.75;;;;;;;;;;6246787;22;20074;-79
2024/01/25 14:22:00;;;;;;;35.78;11.75;;;;;;;;;;6246711;22;20445;-79
2024/01/25 14:24:47;;;;;;;42.15;9.32;;;;;;;;;;6246526;22;20100;-78
2024/01/25 14:27:14;;;;;;;46.08;10.07;;;;;;;;;;6245864;22;20435;-79
2024/01/25 14:29:41;;;;;;;40.70;9.55;;;;;;;;;;6246611;22;20012;-80
2024/01/25 14:32:08;;;;;;;53.00;10.93;;;;;;;;;;6245994;22;20463;-79